Time;durP1;ratioP1;P1;durP2;ratioP2;P2;SDS_P1;SDS_P2;PMS_P1;PMS_P2;Temp;Humidity;BMP_temperature;BMP_pressure;BME280_temperature;BME280_humidity;BME280_pressure;Samples;Min_cycle;Max_cycle;Signal;HPM_P1;HPM_P2
2023/12/17 00:01:33;;;;;;;16.93;12.87;;;9.90;67.90;;;;;;5102972;27;20220;-87
2023/12/17 00:03:59;;;;;;;17.20;13.20;;;9.90;67.90;;;;;;5098879;27;20308;-86
2023/12/17 00:06:25;;;;;;;17.53;12.93;;;10.00;66.70;;;;;;5131751;27;20207;-88
2023/12/17 00:08:50;;;;;;;22.80;13.77;;;9.90;67.80;;;;;;5114575;27;20274;-87
2023/12/17 00:11:16;;;;;;;14.97;12.73;;;9.90;67.70;;;;;;5131145;27;20620;-87
2023/12/17 00:13:41;;;;;;;18.40;12.43;;;9.80;67.60;;;;;;5114725;27;20252;-87
2023/12/17 00:16:10;;;;;;;17.00;12.50;;;9.90;67.90;;;;;;5111860;27;20672;-87
2023/12/17 00:18:36;;;;;;;20.40;13.80;;;9.80;67.60;;;;;;5115589;27;20179;-87
2023/12/17 00:21:02;;;;;;;17.67;13.23;;;9.90;67.60;;;;;;5097831;28;20184;-87
2023/12/17 00:23:27;;;;;;;21.30;13.60;;;9.90;67.70;;;;;;5108135;27;20187;-87
2023/12/17 00:25:53;;;;;;;19.77;13.07;;;9.90;67.50;;;;;;5131205;27;20667;-87
2023/12/17 00:28:18;;;;;;;19.10;12.80;;;9.90;67.60;;;;;;5114226;27;20266;-87
2023/12/17 00:30:44;;;;;;;16.83;12.80;;;9.90;67.40;;;;;;5115079;27;20167;-87
2023/12/17 00:33:11;;;;;;;19.00;12.83;;;9.80;67.30;;;;;;5113963;27;20194;-87
2023/12/17 00:35:36;;;;;;;19.23;13.17;;;10.00;66.40;;;;;;5110696;27;20186;-87
2023/12/17 00:38:02;;;;;;;18.97;12.53;;;9.90;67.60;;;;;;5107831;28;20543;-87
2023/12/17 00:40:27;;;;;;;16.20;12.00;;;9.90;67.50;;;;;;5099539;27;20655;-87
2023/12/17 00:42:53;;;;;;;20.50;13.37;;;9.90;67.50;;;;;;5113531;27;20171;-87
2023/12/17 00:45:18;;;;;;;17.53;12.93;;;9.90;67.50;;;;;;5113321;28;20663;-88
2023/12/17 00:47:44;;;;;;;17.63;12.37;;;9.90;67.40;;;;;;5114196;28;20182;-87
2023/12/17 00:50:10;;;;;;;16.47;12.93;;;9.90;67.40;;;;;;5111725;28;20179;-87
2023/12/17 00:52:35;;;;;;;22.23;12.73;;;9.90;67.50;;;;;;5100821;28;20205;-87
2023/12/17 00:55:01;;;;;;;18.30;12.83;;;10.00;66.10;;;;;;5132763;27;20206;-87
2023/12/17 00:57:27;;;;;;;18.63;13.37;;;10.00;66.00;;;;;;5112877;28;20620;-87
2023/12/17 00:59:52;;;;;;;16.13;13.03;;;9.90;67.00;;;;;;5114667;28;20270;-87
2023/12/17 01:02:18;;;;;;;16.77;12.90;;;9.90;67.10;;;;;;5132445;28;20187;-87
2023/12/17 01:04:43;;;;;;;16.67;13.23;;;10.10;66.20;;;;;;5112610;28;20261;-87
2023/12/17 01:07:09;;;;;;;19.50;12.57;;;10.00;66.20;;;;;;5115197;28;20167;-87
2023/12/17 01:09:35;;;;;;;15.97;12.97;;;10.00;65.90;;;;;;5100389;28;20167;-87
2023/12/17 01:12:03;;;;;;;19.70;13.77;;;10.00;65.90;;;;;;5112223;28;20186;-87
2023/12/17 01:14:32;;;;;;;20.90;13.97;;;10.00;65.80;;;;;;5114020;28;20213;-87
2023/12/17 01:16:58;;;;;;;19.97;12.50;;;10.00;66.00;;;;;;5105454;28;20251;-87
2023/12/17 01:19:23;;;;;;;21.93;14.37;;;9.90;67.00;;;;;;5098539;28;20603;-87
2023/12/17 01:21:49;;;;;;;23.47;14.60;;;10.00;66.10;;;;;;5113602;28;20250;-87
2023/12/17 01:24:15;;;;;;;23.43;14.80;;;10.10;66.30;;;;;;5114574;28;20191;-87
2023/12/17 01:26:40;;;;;;;25.33;14.83;;;9.90;67.30;;;;;;5132567;28;20183;-87
2023/12/17 01:29:06;;;;;;;20.67;14.97;;;9.90;67.30;;;;;;5114561;28;20519;-87
2023/12/17 01:31:32;;;;;;;24.67;14.70;;;10.00;66.40;;;;;;5114678;28;20187;-88
2023/12/17 01:33:57;;;;;;;20.53;14.23;;;9.90;67.40;;;;;;5097645;28;20302;-87
2023/12/17 01:36:23;;;;;;;22.47;15.50;;;9.90;67.50;;;;;;5114553;27;20194;-87
2023/12/17 01:38:48;;;;;;;25.00;15.47;;;10.00;66.50;;;;;;5107907;27;20664;-88
2023/12/17 01:41:14;;;;;;;23.43;15.47;;;9.80;67.60;;;;;;5107372;27;20175;-87
2023/12/17 01:43:40;;;;;;;24.43;16.23;;;9.80;67.80;;;;;;5112588;27;20183;-88
2023/12/17 01:46:06;;;;;;;21.47;15.73;;;10.00;66.80;;;;;;5111220;27;20235;-88
2023/12/17 01:48:32;;;;;;;20.10;16.57;;;9.90;68.40;;;;;;5128927;27;20189;-88
2023/12/17 01:50:57;;;;;;;22.57;15.97;;;9.90;67.90;;;;;;5108044;27;20261;-88
2023/12/17 01:53:24;;;;;;;23.20;15.20;;;9.90;67.90;;;;;;5127995;27;20291;-88
2023/12/17 01:55:50;;;;;;;23.10;15.33;;;10.00;66.70;;;;;;5132131;27;20220;-86
2023/12/17 01:58:17;;;;;;;27.33;16.70;;;10.00;66.60;;;;;;5107310;27;20527;-88
2023/12/17 02:00:48;;;;;;;31.03;16.03;;;10.00;66.60;;;;;;5130312;27;20171;-88
2023/12/17 02:03:14;;;;;;;24.03;16.53;;;10.10;66.70;;;;;;5110960;27;20211;-87
2023/12/17 02:05:40;;;;;;;22.90;16.67;;;10.00;66.60;;;;;;5108206;27;20579;-88
2023/12/17 02:08:05;;;;;;;25.17;16.57;;;9.90;67.90;;;;;;5108173;27;20237;-88
2023/12/17 02:10:31;;;;;;;31.60;17.00;;;9.90;67.90;;;;;;5113696;27;20168;-87
2023/12/17 02:13:01;;;;;;;27.60;17.37;;;10.00;66.90;;;;;;5108204;28;20229;-87
2023/12/17 02:15:27;;;;;;;27.23;16.30;;;9.90;68.80;;;;;;5126523;27;20179;-87
2023/12/17 02:17:53;;;;;;;27.00;17.23;;;9.90;68.20;;;;;;5108872;27;20184;-88
2023/12/17 02:20:18;;;;;;;25.53;16.47;;;9.90;68.30;;;;;;5106728;28;20676;-87
2023/12/17 02:22:50;;;;;;;21.83;15.93;;;9.90;68.40;;;;;;5108280;27;20171;-88
2023/12/17 02:25:15;;;;;;;25.40;17.00;;;9.90;68.40;;;;;;5107385;27;20872;-87
2023/12/17 02:27:43;;;;;;;29.43;17.20;;;9.90;68.60;;;;;;5101056;28;20262;-88
2023/12/17 02:30:09;;;;;;;22.97;17.17;;;10.00;67.40;;;;;;5114390;27;20692;-88
2023/12/17 02:32:35;;;;;;;27.97;17.00;;;10.00;67.40;;;;;;5116772;27;20174;-87
2023/12/17 02:35:00;;;;;;;27.03;17.73;;;10.00;67.20;;;;;;5117279;27;20672;-88
2023/12/17 02:37:26;;;;;;;25.77;17.00;;;10.00;67.20;;;;;;5116986;27;20216;-86
2023/12/17 02:39:52;;;;;;;24.43;17.87;;;10.10;67.40;;;;;;5102321;28;20172;-89
2023/12/17 02:42:18;;;;;;;34.17;18.50;;;10.00;67.40;;;;;;5123559;27;20170;-87
2023/12/17 02:44:44;;;;;;;29.63;18.23;;;10.00;67.60;;;;;;5128852;27;20696;-86
2023/12/17 02:47:09;;;;;;;25.93;17.67;;;10.00;67.80;;;;;;5116644;27;20265;-88
2023/12/17 02:49:35;;;;;;;27.43;17.70;;;9.90;69.00;;;;;;5116897;27;20178;-88
2023/12/17 02:52:01;;;;;;;28.70;18.30;;;9.90;69.20;;;;;;5117148;27;20312;-88
2023/12/17 02:54:27;;;;;;;27.63;17.47;;;10.00;68.20;;;;;;5116643;27;20287;-87
2023/12/17 02:56:53;;;;;;;40.07;18.93;;;10.00;68.30;;;;;;5116933;27;20186;-88
2023/12/17 02:59:19;;;;;;;30.90;19.83;;;10.00;68.20;;;;;;5115141;27;20201;-87
2023/12/17 03:01:44;;;;;;;27.27;18.47;;;10.00;68.30;;;;;;5101979;27;20220;-87
2023/12/17 03:04:10;;;;;;;29.07;18.47;;;10.00;69.10;;;;;;5099656;27;20216;-88
2023/12/17 03:06:37;;;;;;;34.00;19.20;;;9.90;69.70;;;;;;5104373;28;20176;-87
2023/12/17 03:09:03;;;;;;;34.37;20.27;;;10.00;68.70;;;;;;5105062;28;20199;-88
2023/12/17 03:11:28;;;;;;;25.90;18.13;;;10.00;68.70;;;;;;5107981;27;20221;-87
2023/12/17 03:13:54;;;;;;;31.83;18.97;;;10.00;68.80;;;;;;5116463;27;20305;-90
2023/12/17 03:16:20;;;;;;;35.00;19.43;;;10.00;68.80;;;;;;5117969;27;20179;-89
2023/12/17 03:18:46;;;;;;;28.47;19.87;;;10.00;68.80;;;;;;5114864;27;20164;-91
2023/12/17 03:21:12;;;;;;;34.30;18.33;;;10.00;68.80;;;;;;5116613;27;20175;-85
2023/12/17 03:23:38;;;;;;;30.73;19.97;;;9.90;70.20;;;;;;5116211;27;20553;-86
2023/12/17 03:26:04;;;;;;;32.90;19.33;;;10.00;69.20;;;;;;5116558;27;20189;-85
2023/12/17 03:28:30;;;;;;;34.77;19.83;;;9.90;70.30;;;;;;5099951;27;20191;-85
2023/12/17 03:30:55;;;;;;;30.30;19.03;;;10.10;69.30;;;;;;5116552;27;20182;-85
2023/12/17 03:33:21;;;;;;;29.10;18.53;;;10.20;69.30;;;;;;5115659;27;20195;-85
2023/12/17 03:35:47;;;;;;;27.77;20.03;;;10.10;69.30;;;;;;5116140;27;20182;-85
2023/12/17 03:38:14;;;;;;;29.97;18.60;;;10.10;69.00;;;;;;5116348;27;20513;-85
2023/12/17 03:40:40;;;;;;;29.80;19.00;;;10.10;69.00;;;;;;5115663;27;20175;-84
2023/12/17 03:43:07;;;;;;;29.07;19.03;;;10.10;69.00;;;;;;5133463;27;20182;-85
2023/12/17 03:45:33;;;;;;;30.80;19.53;;;10.10;69.10;;;;;;5134151;27;20545;-85
2023/12/17 03:48:00;;;;;;;26.87;18.63;;;10.10;69.00;;;;;;5115703;27;20563;-84
2023/12/17 03:50:25;;;;;;;31.60;18.80;;;10.10;69.10;;;;;;5115581;27;20174;-84
2023/12/17 03:52:51;;;;;;;35.10;19.90;;;10.20;69.30;;;;;;5115747;27;20172;-85
2023/12/17 03:55:17;;;;;;;27.63;19.43;;;10.20;69.40;;;;;;5115714;27;20179;-85
2023/12/17 03:57:45;;;;;;;34.97;20.07;;;10.20;69.30;;;;;;5103327;28;20216;-85
2023/12/17 04:00:11;;;;;;;32.60;19.43;;;10.20;69.20;;;;;;5110660;27;20208;-85
2023/12/17 04:02:37;;;;;;;31.37;19.90;;;10.20;69.30;;;;;;5114404;27;20273;-84
2023/12/17 04:05:03;;;;;;;33.87;21.47;;;10.20;69.30;;;;;;5114985;27;20858;-85
2023/12/17 04:07:30;;;;;;;36.00;19.50;;;10.10;69.40;;;;;;5115639;27;20177;-85
2023/12/17 04:09:57;;;;;;;30.23;19.63;;;10.10;69.60;;;;;;5118127;27;20163;-86
2023/12/17 04:12:22;;;;;;;29.73;20.70;;;10.10;70.00;;;;;;5112602;27;20179;-85
2023/12/17 04:14:48;;;;;;;33.77;19.47;;;10.10;70.00;;;;;;5115148;27;20205;-85
2023/12/17 04:17:14;;;;;;;32.50;20.93;;;10.10;70.20;;;;;;5115115;27;20179;-85
2023/12/17 04:19:39;;;;;;;31.20;20.30;;;10.10;70.40;;;;;;5115484;27;20337;-85
2023/12/17 04:22:05;;;;;;;30.93;20.53;;;10.10;70.40;;;;;;5116025;27;20200;-85
2023/12/17 04:24:31;;;;;;;32.23;21.43;;;10.10;71.30;;;;;;5105195;28;20187;-86
2023/12/17 04:26:56;;;;;;;33.70;20.97;;;10.10;70.70;;;;;;5108578;27;20179;-85
2023/12/17 04:29:22;;;;;;;37.13;20.53;;;10.10;70.70;;;;;;5115541;27;20179;-85
2023/12/17 04:31:47;;;;;;;30.83;19.80;;;10.10;70.80;;;;;;5115060;27;20179;-85
2023/12/17 04:34:13;;;;;;;29.77;19.63;;;10.20;70.80;;;;;;5115552;27;20205;-85
2023/12/17 04:36:41;;;;;;;34.43;20.30;;;10.20;70.80;;;;;;5115232;27;20784;-86
2023/12/17 04:39:06;;;;;;;34.27;20.63;;;10.20;70.70;;;;;;5115224;27;20238;-85
2023/12/17 04:41:33;;;;;;;33.73;21.10;;;10.20;70.80;;;;;;5115470;27;20186;-85
2023/12/17 04:43:59;;;;;;;30.50;19.17;;;10.30;71.00;;;;;;5115193;27;20693;-85
2023/12/17 04:46:25;;;;;;;32.60;21.53;;;10.20;71.00;;;;;;5116296;27;20176;-85
2023/12/17 04:48:51;;;;;;;30.27;21.70;;;10.20;71.20;;;;;;5115532;28;20199;-86
2023/12/17 04:51:17;;;;;;;33.90;19.80;;;10.20;71.20;;;;;;5107100;28;20213;-86
2023/12/17 04:53:42;;;;;;;31.77;21.10;;;10.20;71.20;;;;;;5105729;27;20210;-86
2023/12/17 04:56:08;;;;;;;34.60;21.63;;;10.30;71.50;;;;;;5115112;28;20232;-86
2023/12/17 04:58:34;;;;;;;32.43;19.07;;;10.20;71.50;;;;;;5115123;28;20767;-86
2023/12/17 05:01:00;;;;;;;31.73;21.73;;;10.20;71.50;;;;;;5114978;28;20187;-85
2023/12/17 05:03:26;;;;;;;32.90;22.17;;;10.30;71.80;;;;;;5111499;28;20226;-86
2023/12/17 05:05:51;;;;;;;32.13;21.33;;;10.20;71.60;;;;;;5111264;28;20190;-85
2023/12/17 05:08:18;;;;;;;31.70;21.57;;;10.20;71.60;;;;;;5111692;28;20179;-85
2023/12/17 05:10:43;;;;;;;35.97;22.87;;;10.20;71.80;;;;;;5099286;28;20210;-86
2023/12/17 05:13:09;;;;;;;32.77;21.87;;;10.30;72.10;;;;;;5115943;28;20663;-85
2023/12/17 05:15:35;;;;;;;33.13;21.57;;;10.20;72.10;;;;;;5115357;28;20660;-86
2023/12/17 05:18:00;;;;;;;37.37;21.57;;;10.20;72.10;;;;;;5114991;28;20540;-85
2023/12/17 05:20:26;;;;;;;35.03;21.03;;;10.20;72.20;;;;;;5115531;28;20629;-86
2023/12/17 05:22:52;;;;;;;35.27;20.93;;;10.20;72.40;;;;;;5115399;28;20187;-85
2023/12/17 05:25:18;;;;;;;30.57;20.70;;;10.20;72.50;;;;;;5115845;28;20167;-86
2023/12/17 05:27:44;;;;;;;32.23;21.37;;;10.20;72.60;;;;;;5104841;28;20265;-86
2023/12/17 05:30:10;;;;;;;34.37;21.47;;;10.20;72.50;;;;;;5110202;28;20218;-86
2023/12/17 05:32:36;;;;;;;27.57;20.40;;;10.30;72.60;;;;;;5112446;28;20206;-86
2023/12/17 05:35:01;;;;;;;32.67;23.13;;;10.30;72.60;;;;;;5099763;28;20668;-85
2023/12/17 05:37:27;;;;;;;28.60;20.67;;;10.30;72.70;;;;;;5115917;28;20183;-86
2023/12/17 05:39:53;;;;;;;35.20;21.47;;;10.30;72.60;;;;;;5103763;28;20638;-85
2023/12/17 05:42:18;;;;;;;39.63;23.07;;;10.30;72.70;;;;;;5110233;28;20180;-86
2023/12/17 05:44:44;;;;;;;34.27;22.23;;;10.30;72.60;;;;;;5110301;28;20208;-86
2023/12/17 05:47:09;;;;;;;31.27;21.60;;;10.30;72.70;;;;;;5101207;28;20179;-85
2023/12/17 05:49:39;;;;;;;38.63;22.67;;;10.30;72.80;;;;;;5114913;28;20176;-86
2023/12/17 05:52:05;;;;;;;34.37;21.97;;;10.40;72.90;;;;;;5126397;27;20175;-85
2023/12/17 05:54:31;;;;;;;35.47;23.20;;;10.30;72.80;;;;;;5115901;28;20235;-84
2023/12/17 05:56:57;;;;;;;33.83;23.83;;;10.30;72.80;;;;;;5114782;28;20793;-85
2023/12/17 05:59:23;;;;;;;34.23;22.83;;;10.30;73.00;;;;;;5114728;28;20191;-85
2023/12/17 06:01:52;;;;;;;33.53;23.33;;;10.30;73.10;;;;;;5114440;28;20183;-86
2023/12/17 06:04:18;;;;;;;31.77;23.27;;;10.40;73.30;;;;;;5121112;27;20208;-84
2023/12/17 06:06:44;;;;;;;32.63;22.70;;;10.40;73.10;;;;;;5113393;28;20183;-85
2023/12/17 06:09:10;;;;;;;35.70;23.57;;;10.40;73.10;;;;;;5130806;27;20176;-86
2023/12/17 06:11:35;;;;;;;32.73;23.93;;;10.40;73.00;;;;;;5129872;27;20266;-85
2023/12/17 06:14:03;;;;;;;35.50;23.43;;;10.40;73.10;;;;;;5102172;28;20706;-85
2023/12/17 06:16:29;;;;;;;33.50;22.77;;;10.40;73.10;;;;;;5114711;28;20324;-86
2023/12/17 06:18:54;;;;;;;35.03;24.07;;;10.40;73.20;;;;;;5114408;28;20271;-86
2023/12/17 06:21:24;;;;;;;34.17;23.57;;;10.40;73.10;;;;;;5113340;28;20172;-85
2023/12/17 06:23:51;;;;;;;32.17;24.17;;;10.40;73.10;;;;;;5112399;28;20184;-86
2023/12/17 06:26:20;;;;;;;36.50;24.43;;;10.40;73.40;;;;;;5100976;28;20179;-85
2023/12/17 06:28:46;;;;;;;33.97;24.17;;;10.50;73.30;;;;;;5115147;28;20183;-85
2023/12/17 06:31:12;;;;;;;33.10;23.10;;;10.50;73.10;;;;;;5115559;28;20637;-86
2023/12/17 06:33:38;;;;;;;36.23;23.73;;;10.50;73.10;;;;;;5131004;27;20206;-85
2023/12/17 06:36:05;;;;;;;34.70;22.87;;;10.50;73.00;;;;;;5130736;27;20187;-86
2023/12/17 06:38:31;;;;;;;34.77;24.17;;;10.50;73.10;;;;;;5127984;27;20172;-86
2023/12/17 06:40:56;;;;;;;39.77;24.53;;;10.50;73.10;;;;;;5097438;28;20187;-85
2023/12/17 06:43:22;;;;;;;37.87;24.23;;;10.60;73.20;;;;;;5114072;28;20628;-86
2023/12/17 06:45:48;;;;;;;37.63;25.70;;;10.50;73.10;;;;;;5127512;27;20203;-85
2023/12/17 06:48:13;;;;;;;41.07;25.57;;;10.60;73.20;;;;;;5114135;28;20271;-85
2023/12/17 06:50:39;;;;;;;36.93;25.23;;;10.60;73.20;;;;;;5113555;28;20660;-85
2023/12/17 06:53:04;;;;;;;31.53;23.97;;;10.60;73.10;;;;;;5097638;28;20175;-85
2023/12/17 06:55:30;;;;;;;34.13;23.80;;;10.60;73.10;;;;;;5131416;27;20637;-85
2023/12/17 06:57:56;;;;;;;38.70;26.33;;;10.50;73.10;;;;;;5103676;28;20180;-85
2023/12/17 07:00:21;;;;;;;36.33;25.60;;;10.50;73.30;;;;;;5107104;28;20184;-85
2023/12/17 07:02:47;;;;;;;37.33;25.30;;;10.50;73.40;;;;;;5113837;28;20521;-86
2023/12/17 07:05:13;;;;;;;36.10;26.37;;;10.50;73.50;;;;;;5129782;27;20685;-84
2023/12/17 07:07:39;;;;;;;37.07;26.10;;;10.50;73.60;;;;;;5113997;28;20206;-85
2023/12/17 07:10:06;;;;;;;42.27;27.27;;;10.50;73.60;;;;;;5113540;28;20652;-85
2023/12/17 07:12:32;;;;;;;43.47;27.77;;;10.50;73.70;;;;;;5112529;28;20212;-85
2023/12/17 07:14:57;;;;;;;43.07;27.37;;;10.50;73.60;;;;;;5114677;28;20662;-85
2023/12/17 07:17:23;;;;;;;40.33;26.80;;;10.60;73.90;;;;;;5111518;28;20188;-85
2023/12/17 07:19:49;;;;;;;42.47;28.90;;;10.60;73.80;;;;;;5098605;28;20187;-86
2023/12/17 07:22:16;;;;;;;40.97;27.73;;;10.60;73.70;;;;;;5112081;28;20303;-85
2023/12/17 07:24:42;;;;;;;44.20;28.40;;;10.60;73.60;;;;;;5104226;28;20271;-85
2023/12/17 07:27:07;;;;;;;39.40;25.97;;;10.70;73.80;;;;;;5104208;28;20317;-85
2023/12/17 07:29:34;;;;;;;38.03;27.47;;;10.60;73.60;;;;;;5113515;28;20199;-86
2023/12/17 07:32:02;;;;;;;37.07;26.03;;;10.60;73.70;;;;;;5112602;28;20204;-85
2023/12/17 07:34:28;;;;;;;37.57;27.77;;;10.60;73.80;;;;;;5112301;28;20281;-85
2023/12/17 07:36:54;;;;;;;43.53;28.93;;;10.60;73.70;;;;;;5102782;28;20216;-85
2023/12/17 07:39:19;;;;;;;42.23;27.67;;;10.60;73.80;;;;;;5101363;28;20188;-85
2023/12/17 07:41:45;;;;;;;36.80;26.57;;;10.70;73.90;;;;;;5102146;28;20221;-84
2023/12/17 07:44:20;;;;;;;44.30;26.47;;;10.70;73.70;;;;;;5096070;28;20215;-85
2023/12/17 07:46:45;;;;;;;40.90;29.13;;;10.70;73.60;;;;;;5109501;28;20174;-85
2023/12/17 07:49:11;;;;;;;35.67;26.23;;;10.70;73.60;;;;;;5113767;28;20228;-85
2023/12/17 07:51:38;;;;;;;44.10;29.37;;;10.70;73.60;;;;;;5111009;28;20200;-85
2023/12/17 07:54:05;;;;;;;37.97;28.27;;;10.70;73.50;;;;;;5124965;27;20278;-86
2023/12/17 07:56:31;;;;;;;40.80;28.60;;;10.60;73.50;;;;;;5105065;28;20641;-85
2023/12/17 07:58:57;;;;;;;46.53;28.70;;;10.60;73.70;;;;;;5098954;28;20188;-85
2023/12/17 08:01:30;;;;;;;42.00;27.73;;;10.70;74.00;;;;;;5128628;27;20309;-86
2023/12/17 08:03:57;;;;;;;45.60;29.40;;;10.70;73.90;;;;;;5120314;27;20230;-85
2023/12/17 08:06:23;;;;;;;43.03;28.50;;;10.70;73.70;;;;;;5109331;27;20185;-87
2023/12/17 08:08:50;;;;;;;44.97;27.37;;;10.70;73.60;;;;;;5105455;27;20171;-87
2023/12/17 08:11:16;;;;;;;46.00;28.90;;;10.70;73.60;;;;;;5125115;27;20664;-89
2023/12/17 08:13:42;;;;;;;43.23;30.03;;;10.70;73.70;;;;;;5110113;28;20212;-88
2023/12/17 08:16:08;;;;;;;49.27;30.30;;;10.80;73.90;;;;;;5126760;27;20221;-87
2023/12/17 08:18:34;;;;;;;42.43;30.23;;;10.80;73.80;;;;;;5108709;27;20187;-86
2023/12/17 08:20:59;;;;;;;41.80;28.10;;;10.80;73.80;;;;;;5111805;27;20175;-86
2023/12/17 08:23:26;;;;;;;46.90;29.90;;;10.80;73.90;;;;;;5105882;27;20203;-86
2023/12/17 08:25:52;;;;;;;41.27;28.83;;;10.80;73.60;;;;;;5108787;27;20172;-86
2023/12/17 08:28:19;;;;;;;38.07;27.30;;;10.80;73.60;;;;;;5105386;27;20239;-85
2023/12/17 08:30:45;;;;;;;47.13;29.33;;;10.90;73.70;;;;;;5109987;28;20180;-87
2023/12/17 08:33:11;;;;;;;45.60;29.30;;;10.80;73.40;;;;;;5126772;27;20187;-85
2023/12/17 08:35:37;;;;;;;38.40;29.27;;;10.90;73.50;;;;;;5106261;28;20182;-87
2023/12/17 08:38:05;;;;;;;45.90;29.13;;;10.90;73.30;;;;;;5105073;27;20210;-86
2023/12/17 08:40:37;;;;;;;41.10;27.77;;;10.90;73.40;;;;;;5114262;27;20194;-85
2023/12/17 08:43:07;;;;;;;43.80;28.10;;;10.90;73.40;;;;;;5110807;27;20183;-86
2023/12/17 08:45:33;;;;;;;37.90;26.50;;;10.90;73.40;;;;;;5107581;27;20259;-86
2023/12/17 08:48:00;;;;;;;40.80;28.03;;;11.00;73.50;;;;;;5100298;28;20210;-87
2023/12/17 08:50:26;;;;;;;45.13;26.77;;;10.90;73.40;;;;;;5111479;28;20182;-85
2023/12/17 08:52:52;;;;;;;39.93;28.37;;;10.90;73.30;;;;;;5103391;28;20807;-86
2023/12/17 08:55:19;;;;;;;37.17;27.33;;;11.00;73.40;;;;;;5109083;27;20222;-85
2023/12/17 08:57:45;;;;;;;40.27;28.67;;;11.10;73.40;;;;;;5103434;28;20281;-85
2023/12/17 09:00:12;;;;;;;43.80;28.20;;;11.00;73.20;;;;;;5128004;28;20282;-85
2023/12/17 09:02:37;;;;;;;38.87;27.23;;;11.00;73.10;;;;;;5111147;28;20211;-86
2023/12/17 09:05:03;;;;;;;42.13;28.80;;;11.00;73.20;;;;;;5125882;28;20279;-86
2023/12/17 09:07:30;;;;;;;44.60;29.17;;;11.00;73.20;;;;;;5104239;28;20191;-86
2023/12/17 09:09:55;;;;;;;44.87;28.63;;;11.00;74.00;;;;;;5109494;28;20187;-88
2023/12/17 09:12:21;;;;;;;42.63;28.40;;;11.00;73.20;;;;;;5126525;28;20190;-89
2023/12/17 09:14:47;;;;;;;37.93;27.77;;;10.90;73.20;;;;;;5106481;28;20616;-89
2023/12/17 09:17:13;;;;;;;37.03;26.30;;;10.90;73.30;;;;;;5114453;28;20289;-87
2023/12/17 09:19:39;;;;;;;39.07;26.93;;;10.90;73.60;;;;;;5114574;28;20718;-88
2023/12/17 09:22:05;;;;;;;38.60;28.10;;;10.90;73.70;;;;;;5112912;28;20536;-88
2023/12/17 09:24:31;;;;;;;38.27;27.73;;;10.90;73.70;;;;;;5114963;28;20279;-87
2023/12/17 09:26:57;;;;;;;38.57;27.87;;;10.90;73.80;;;;;;5114903;28;20179;-88
2023/12/17 09:29:23;;;;;;;37.47;26.63;;;10.90;73.80;;;;;;5114517;28;20175;-87
2023/12/17 09:31:48;;;;;;;38.93;26.77;;;10.90;73.80;;;;;;5114884;28;20239;-87
2023/12/17 09:34:14;;;;;;;40.00;26.83;;;11.00;74.00;;;;;;5113718;28;20275;-85
2023/12/17 09:36:41;;;;;;;35.87;27.40;;;10.90;73.90;;;;;;5111877;28;20186;-85
2023/12/17 09:39:07;;;;;;;39.07;26.53;;;10.90;73.90;;;;;;5110891;28;20167;-86
2023/12/17 09:41:33;;;;;;;35.90;27.23;;;11.00;74.00;;;;;;5113967;28;20179;-86
2023/12/17 09:43:59;;;;;;;33.47;25.80;;;11.00;74.00;;;;;;5096718;28;20349;-87
2023/12/17 09:46:25;;;;;;;40.63;26.27;;;11.00;74.00;;;;;;5114833;28;21347;-87
2023/12/17 09:48:51;;;;;;;39.83;25.90;;;11.10;74.10;;;;;;5114544;28;20211;-89
2023/12/17 09:51:18;;;;;;;34.53;26.33;;;11.00;73.80;;;;;;5113624;28;20174;-88
2023/12/17 09:53:44;;;;;;;37.47;25.67;;;11.00;73.80;;;;;;5113361;28;20213;-87
2023/12/17 09:56:12;;;;;;;35.00;26.90;;;11.00;73.90;;;;;;5114105;27;20175;-87
2023/12/17 09:58:37;;;;;;;37.33;26.50;;;11.00;74.00;;;;;;5107824;28;20671;-88
2023/12/17 10:01:03;;;;;;;36.50;26.13;;;11.10;74.30;;;;;;5105888;28;20188;-88
2023/12/17 10:03:30;;;;;;;39.30;27.10;;;11.10;74.20;;;;;;5109508;27;20443;-88
2023/12/17 10:05:55;;;;;;;35.20;26.67;;;11.10;73.90;;;;;;5135402;27;20171;-88
2023/12/17 10:08:23;;;;;;;36.77;24.70;;;11.10;73.90;;;;;;5117519;27;20186;-88
2023/12/17 10:10:49;;;;;;;37.33;24.83;;;11.10;74.00;;;;;;5135661;27;20183;-88
2023/12/17 10:13:18;;;;;;;33.20;25.47;;;11.20;74.00;;;;;;5117549;27;20732;-88
2023/12/17 10:15:48;;;;;;;37.50;26.53;;;11.10;74.00;;;;;;5118050;27;20186;-86
2023/12/17 10:18:15;;;;;;;32.90;25.20;;;11.10;74.00;;;;;;5116179;27;20199;-88
2023/12/17 10:20:40;;;;;;;32.00;25.53;;;11.10;74.20;;;;;;5102004;27;20273;-86
2023/12/17 10:23:06;;;;;;;37.70;25.30;;;11.10;74.20;;;;;;5100921;27;20256;-87
2023/12/17 10:25:31;;;;;;;32.60;24.87;;;11.20;74.30;;;;;;5116738;27;20688;-87
2023/12/17 10:27:59;;;;;;;32.87;24.43;;;11.10;74.20;;;;;;5109147;28;20240;-87
2023/12/17 10:30:29;;;;;;;36.50;25.03;;;11.10;74.30;;;;;;5105407;27;20277;-87
2023/12/17 10:32:56;;;;;;;36.60;25.00;;;11.10;74.20;;;;;;5104542;27;20628;-87
2023/12/17 10:35:23;;;;;;;32.80;24.80;;;11.10;74.20;;;;;;5100005;27;20226;-87
2023/12/17 10:38:17;;;;;;;33.53;24.60;;;11.10;74.10;;;;;;5117362;27;20247;-86
2023/12/17 10:40:44;;;;;;;34.23;24.87;;;11.20;74.10;;;;;;5111776;27;20187;-87
2023/12/17 10:43:12;;;;;;;33.97;24.77;;;11.10;73.90;;;;;;5116575;27;20175;-87
2023/12/17 10:45:38;;;;;;;39.83;25.67;;;11.20;74.20;;;;;;5112227;28;20320;-87
2023/12/17 10:48:05;;;;;;;36.67;26.80;;;11.20;74.20;;;;;;5114959;27;20258;-87
2023/12/17 10:50:32;;;;;;;36.00;25.63;;;11.20;74.00;;;;;;5099612;27;20179;-87
2023/12/17 10:52:58;;;;;;;31.73;25.00;;;11.20;73.90;;;;;;5117407;27;20175;-87
2023/12/17 10:55:24;;;;;;;36.47;27.13;;;11.20;73.70;;;;;;5116916;27;20672;-86
2023/12/17 10:57:54;;;;;;;33.73;25.63;;;11.20;74.00;;;;;;5105280;27;20269;-88
2023/12/17 11:00:23;;;;;;;36.87;26.30;;;11.20;74.00;;;;;;5119546;27;20175;-88
2023/12/17 11:02:51;;;;;;;35.80;25.63;;;11.20;74.00;;;;;;5116389;27;20179;-88
2023/12/17 11:05:17;;;;;;;34.40;25.53;;;11.20;74.00;;;;;;5116114;27;20189;-87
2023/12/17 11:07:43;;;;;;;33.90;24.97;;;11.20;73.80;;;;;;5111888;27;20175;-89
2023/12/17 11:10:12;;;;;;;34.67;26.43;;;11.20;74.00;;;;;;5116682;27;20523;-85
2023/12/17 11:12:44;;;;;;;34.60;25.37;;;11.10;74.00;;;;;;5116463;27;20187;-85
2023/12/17 11:15:11;;;;;;;39.13;26.87;;;11.20;74.20;;;;;;5130389;27;20202;-86
2023/12/17 11:17:38;;;;;;;36.93;27.03;;;11.10;74.10;;;;;;5112222;27;20182;-87
2023/12/17 11:20:05;;;;;;;33.30;25.77;;;11.10;73.90;;;;;;5111725;28;20180;-85
2023/12/17 11:22:37;;;;;;;39.03;27.17;;;11.10;74.00;;;;;;5115450;27;20171;-85
2023/12/17 11:25:04;;;;;;;31.13;25.43;;;11.10;74.10;;;;;;5109037;28;20180;-85
2023/12/17 11:27:31;;;;;;;32.37;25.67;;;11.10;74.20;;;;;;5130063;27;20267;-85
2023/12/17 11:29:56;;;;;;;33.83;25.73;;;11.10;74.20;;;;;;5099291;27;20545;-84
2023/12/17 11:32:32;;;;;;;31.27;23.87;;;11.20;74.30;;;;;;5102494;27;20254;-84
2023/12/17 11:34:58;;;;;;;35.47;24.80;;;11.20;74.30;;;;;;5107070;27;20195;-83
2023/12/17 11:37:29;;;;;;;33.30;25.20;;;11.30;74.50;;;;;;5110466;27;20179;-85
2023/12/17 11:39:55;;;;;;;33.10;24.90;;;11.30;74.10;;;;;;5106238;28;20266;-85
2023/12/17 11:42:21;;;;;;;34.37;25.80;;;11.40;74.00;;;;;;5122501;27;20250;-85
2023/12/17 11:44:49;;;;;;;30.07;24.30;;;11.30;73.60;;;;;;5107938;27;20282;-86
2023/12/17 11:47:16;;;;;;;32.13;24.87;;;11.30;73.80;;;;;;5113155;27;20177;-86
2023/12/17 11:49:45;;;;;;;33.33;24.93;;;11.30;73.80;;;;;;5101036;27;20210;-86
2023/12/17 11:52:13;;;;;;;38.47;26.77;;;11.30;73.80;;;;;;5115253;27;20175;-86
2023/12/17 11:54:39;;;;;;;35.30;24.80;;;11.30;73.80;;;;;;5111473;28;20295;-87
2023/12/17 11:57:23;;;;;;;31.67;23.83;;;11.30;74.00;;;;;;5126048;27;20251;-87
2023/12/17 11:59:50;;;;;;;31.40;25.67;;;11.20;74.00;;;;;;5098714;27;20524;-86
2023/12/17 12:02:17;;;;;;;38.23;26.63;;;11.20;74.10;;;;;;5110855;27;20171;-86
2023/12/17 12:04:44;;;;;;;38.80;26.27;;;11.30;74.30;;;;;;5109458;28;20223;-86
2023/12/17 12:07:11;;;;;;;36.77;26.27;;;11.20;74.30;;;;;;5108785;28;20191;-86
2023/12/17 12:09:39;;;;;;;36.33;26.03;;;11.30;74.50;;;;;;5104116;28;20204;-87
2023/12/17 12:12:34;;;;;;;35.17;26.43;;;11.20;74.50;;;;;;5109668;28;20184;-85
2023/12/17 12:15:02;;;;;;;33.53;24.93;;;11.20;74.50;;;;;;5086359;28;20216;-87
2023/12/17 12:17:42;;;;;;;33.50;25.47;;;11.20;74.50;;;;;;5111907;28;20185;-85
2023/12/17 12:20:10;;;;;;;35.30;25.30;;;11.20;74.60;;;;;;5106406;28;20164;-86
2023/12/17 12:22:37;;;;;;;31.90;25.83;;;11.20;74.50;;;;;;5110742;28;20194;-86
2023/12/17 12:25:03;;;;;;;35.27;26.20;;;11.40;74.60;;;;;;5104385;28;20199;-85